Time;durP1;ratioP1;P1;durP2;ratioP2;P2;SDS_P1;SDS_P2;PMS_P1;PMS_P2;Temp;Humidity;BMP_temperature;BMP_pressure;BME280_temperature;BME280_humidity;BME280_pressure;Samples;Min_cycle;Max_cycle;Signal;HPM_P1;HPM_P2
2021/12/04 04:00:46;;;;;;;2.40;1.10;;;4.20;88.00;;;;;;6105843;23;20396;31
2021/12/04 04:03:13;;;;;;;2.50;1.23;;;4.10;88.50;;;;;;4953642;29;20462;-75
2021/12/04 04:05:40;;;;;;;3.07;1.40;;;4.00;89.30;;;;;;4954972;28;20450;-75
2021/12/04 04:08:07;;;;;;;2.70;1.10;;;3.90;89.70;;;;;;4954946;28;20870;-74
2021/12/04 04:10:34;;;;;;;2.70;1.20;;;3.80;90.50;;;;;;4954841;28;20450;-75
2021/12/04 04:13:00;;;;;;;2.30;0.90;;;3.70;91.20;;;;;;4955390;28;20447;-74
2021/12/04 04:15:27;;;;;;;2.20;1.00;;;3.70;91.60;;;;;;5019045;23;20500;-70
2021/12/04 04:17:55;;;;;;;2.30;1.10;;;3.80;91.70;;;;;;5012986;28;20498;-70
2021/12/04 04:20:23;;;;;;;2.33;1.00;;;3.90;91.70;;;;;;5012486;28;20986;-71
2021/12/04 04:22:50;;;;;;;2.17;0.80;;;3.90;91.10;;;;;;5012941;28;20448;-71
2021/12/04 04:25:18;;;;;;;2.30;1.00;;;3.90;91.40;;;;;;5013931;28;20464;-70
2021/12/04 04:27:45;;;;;;;2.33;0.90;;;3.90;91.50;;;;;;5016497;28;20497;-70
2021/12/04 04:30:16;;;;;;;2.43;0.90;;;3.80;91.90;;;;;;5016677;28;20505;-70
2021/12/04 04:32:43;;;;;;;2.20;0.83;;;3.80;92.40;;;;;;5017249;28;20482;-70
2021/12/04 04:35:14;;;;;;;2.40;0.80;;;3.90;92.70;;;;;;5016326;28;20522;-69
2021/12/04 04:37:48;;;;;;;2.03;0.73;;;4.00;92.30;;;;;;5016435;28;20437;-70
2021/12/04 04:40:43;;;;;;;2.20;0.83;;;4.20;92.10;;;;;;5016395;28;20468;-69
2021/12/04 04:59:51;;;;;;;2.00;0.70;;;4.40;90.90;;;;;;5015669;28;21090;-70
2021/12/04 05:02:27;;;;;;;2.13;0.63;;;4.50;90.90;;;;;;5015777;28;20472;-69
2021/12/04 05:10:38;;;;;;;2.10;0.70;;;4.70;91.40;;;;;;4982998;28;20433;-70
2021/12/04 05:13:07;;;;;;;2.10;0.70;;;4.70;90.40;;;;;;5015580;28;20432;-71
2021/12/04 05:15:37;;;;;;;2.10;0.70;;;4.70;90.90;;;;;;5015224;28;20477;-70
2021/12/04 05:18:16;;;;;;;1.97;0.60;;;4.80;90.70;;;;;;5015228;28;20900;-70
2021/12/04 05:20:49;;;;;;;2.00;0.60;;;4.70;90.80;;;;;;5015346;28;20468;-70
2021/12/04 05:23:17;;;;;;;2.00;0.60;;;4.80;91.10;;;;;;5015427;28;20443;-69
2021/12/04 05:25:44;;;;;;;2.10;0.60;;;4.60;91.30;;;;;;5015254;28;20479;-69
2021/12/04 05:28:11;;;;;;;2.00;0.63;;;4.60;91.80;;;;;;5015259;28;20445;-70
2021/12/04 05:30:38;;;;;;;2.00;0.60;;;4.60;92.40;;;;;;5015030;28;20857;-70
2021/12/04 05:33:05;;;;;;;1.93;0.60;;;4.60;92.40;;;;;;5015145;28;20448;-69
2021/12/04 05:35:33;;;;;;;2.10;0.60;;;4.60;92.50;;;;;;5014985;28;20523;-69
2021/12/04 05:37:59;;;;;;;1.97;0.60;;;4.60;92.80;;;;;;5015132;28;20483;-70
2021/12/04 05:40:28;;;;;;;2.00;0.60;;;4.70;92.60;;;;;;5035468;28;20468;-69
2021/12/04 05:43:00;;;;;;;2.00;0.50;;;4.60;93.00;;;;;;5022497;28;20452;-70
2021/12/04 05:45:28;;;;;;;2.07;0.70;;;4.60;93.10;;;;;;5015358;28;20479;-69
2021/12/04 05:48:00;;;;;;;2.00;0.60;;;4.60;93.30;;;;;;5015258;28;20444;-70
2021/12/04 05:50:54;;;;;;;2.00;0.60;;;4.60;93.30;;;;;;5015311;28;20854;-70
2021/12/04 05:53:23;;;;;;;1.93;0.60;;;4.70;93.50;;;;;;5015164;28;20437;-70
2021/12/04 05:55:53;;;;;;;1.97;0.60;;;4.80;93.00;;;;;;5014914;28;20560;-69
2021/12/04 05:58:22;;;;;;;2.00;0.70;;;4.70;93.20;;;;;;5014724;28;20514;-70
2021/12/04 06:00:49;;;;;;;2.00;0.60;;;4.80;93.50;;;;;;5014819;28;20483;-70
2021/12/04 06:03:16;;;;;;;1.93;0.60;;;4.80;93.10;;;;;;5014540;28;20805;-69
2021/12/04 06:05:42;;;;;;;2.00;0.60;;;4.80;93.30;;;;;;5014661;28;20538;-69
2021/12/04 06:08:09;;;;;;;2.73;0.93;;;4.80;93.50;;;;;;5014683;28;20456;-70
2021/12/04 06:10:36;;;;;;;2.00;0.60;;;4.90;93.60;;;;;;5014534;28;20445;-70
2021/12/04 06:13:04;;;;;;;2.10;0.70;;;4.80;93.40;;;;;;5014514;28;20452;-69
2021/12/04 06:15:31;;;;;;;2.00;0.60;;;4.80;93.90;;;;;;5014094;28;20479;-70
2021/12/04 06:17:58;;;;;;;2.00;0.60;;;4.90;93.80;;;;;;5014605;28;20448;-70
2021/12/04 06:23:10;;;;;;;2.20;0.70;;;5.10;93.20;;;;;;5014697;28;20415;-70
2021/12/04 06:25:37;;;;;;;2.00;0.60;;;5.00;93.40;;;;;;5014328;28;20523;-70
2021/12/04 06:28:05;;;;;;;2.00;0.60;;;4.90;93.80;;;;;;5014380;28;20448;-70
2021/12/04 06:30:35;;;;;;;2.00;0.60;;;5.00;93.80;;;;;;5014321;28;20449;-70
2021/12/04 06:33:03;;;;;;;2.00;0.60;;;5.00;93.90;;;;;;5014236;28;20455;-70
2021/12/04 06:35:31;;;;;;;1.97;0.60;;;5.00;93.90;;;;;;5013948;28;20476;-69
2021/12/04 06:37:58;;;;;;;2.00;0.60;;;5.10;93.80;;;;;;5014030;28;20514;-70
2021/12/04 06:40:26;;;;;;;2.00;0.60;;;5.10;93.90;;;;;;5014025;28;20480;-71
2021/12/04 06:42:54;;;;;;;2.00;0.60;;;5.00;94.10;;;;;;5014194;28;20506;-69
2021/12/04 06:45:22;;;;;;;1.97;0.60;;;5.10;94.30;;;;;;5013767;28;20479;-70
2021/12/04 06:47:52;;;;;;;2.00;0.60;;;5.10;94.50;;;;;;5013216;28;20809;-69
2021/12/04 06:50:27;;;;;;;2.00;0.63;;;5.10;94.50;;;;;;5013530;28;20971;-69
2021/12/04 06:52:56;;;;;;;2.00;0.60;;;5.10;94.60;;;;;;5014337;28;20794;-69
2021/12/04 06:55:27;;;;;;;2.00;0.60;;;5.10;94.90;;;;;;5013342;28;20810;-70
2021/12/04 06:57:54;;;;;;;2.00;0.60;;;5.10;94.80;;;;;;5013922;28;20473;-70
2021/12/04 07:00:25;;;;;;;2.20;0.70;;;5.20;94.80;;;;;;5013609;28;20488;-70
2021/12/04 07:02:51;;;;;;;2.20;0.67;;;5.20;94.60;;;;;;5014228;28;20443;-69
2021/12/04 07:05:18;;;;;;;2.00;0.60;;;5.30;94.60;;;;;;5013553;28;20499;-69
2021/12/04 07:07:45;;;;;;;2.00;0.60;;;5.40;94.00;;;;;;5013545;28;20506;-70
2021/12/04 07:10:11;;;;;;;2.00;0.60;;;5.50;93.90;;;;;;5013519;28;20495;-70
2021/12/04 07:12:38;;;;;;;2.00;0.60;;;5.40;94.00;;;;;;5013323;28;20502;-70
2021/12/04 07:15:06;;;;;;;2.00;0.60;;;5.40;94.10;;;;;;5013071;28;20496;-70
2021/12/04 07:17:35;;;;;;;2.00;0.60;;;5.30;94.40;;;;;;5013256;28;20455;-70
2021/12/04 07:20:02;;;;;;;2.00;0.60;;;5.30;94.80;;;;;;5013283;28;20586;-70
2021/12/04 07:22:29;;;;;;;2.00;0.60;;;5.30;94.80;;;;;;5013370;28;20452;-69
2021/12/04 07:24:57;;;;;;;2.00;0.60;;;5.40;94.70;;;;;;5013348;28;20476;-69
2021/12/04 07:27:24;;;;;;;2.00;0.60;;;5.40;94.80;;;;;;5013255;28;20468;-69
2021/12/04 07:29:50;;;;;;;2.00;0.60;;;5.50;94.80;;;;;;5012949;28;20825;-70
2021/12/04 07:32:17;;;;;;;2.03;0.60;;;5.60;94.30;;;;;;5013243;28;20456;-69
2021/12/04 07:34:45;;;;;;;2.10;0.60;;;5.60;94.00;;;;;;5013115;28;20471;-71
2021/12/04 07:37:12;;;;;;;2.00;0.60;;;5.60;94.00;;;;;;5013152;28;20444;-70
2021/12/04 07:39:39;;;;;;;2.00;0.60;;;5.80;94.10;;;;;;5012794;28;20510;-70
2021/12/04 07:42:06;;;;;;;2.00;0.60;;;5.80;93.10;;;;;;5013290;28;20575;-71
2021/12/04 07:44:32;;;;;;;2.00;0.60;;;5.90;93.00;;;;;;5013137;28;20530;-71
2021/12/04 07:47:00;;;;;;;1.97;0.50;;;5.80;93.30;;;;;;5012866;28;20880;-71
2021/12/04 07:49:27;;;;;;;2.03;0.70;;;5.80;93.40;;;;;;5012779;28;20458;-71
2021/12/04 07:51:55;;;;;;;2.00;0.60;;;5.80;93.30;;;;;;5012706;28;20815;-70
2021/12/04 07:54:21;;;;;;;2.00;0.70;;;5.70;94.00;;;;;;5013007;28;20525;-70
2021/12/04 07:56:48;;;;;;;2.10;0.60;;;5.60;94.50;;;;;;5013064;28;20448;-70
2021/12/04 07:59:15;;;;;;;3.77;0.70;;;5.60;94.90;;;;;;5013103;28;20529;-71
2021/12/04 08:01:41;;;;;;;2.37;0.63;;;5.60;95.10;;;;;;5016032;28;20487;-70
2021/12/04 08:04:08;;;;;;;2.00;0.60;;;5.60;95.30;;;;;;5016404;28;20894;-69
2021/12/04 08:06:35;;;;;;;2.00;0.60;;;5.70;95.20;;;;;;5016492;28;20866;-71
2021/12/04 08:09:04;;;;;;;2.40;0.70;;;5.70;95.10;;;;;;5016620;28;20456;-71
2021/12/04 08:11:30;;;;;;;2.00;0.60;;;5.70;95.20;;;;;;5016567;28;20873;-71
2021/12/04 08:13:57;;;;;;;2.00;0.60;;;5.70;95.30;;;;;;5016251;28;20869;-71
2021/12/04 08:16:25;;;;;;;2.20;0.60;;;5.80;95.40;;;;;;5016462;28;20436;-71
2021/12/04 08:18:52;;;;;;;2.00;0.60;;;6.00;95.10;;;;;;5016440;28;20535;-71
2021/12/04 08:21:19;;;;;;;2.00;0.60;;;6.00;94.60;;;;;;5015910;28;20572;-70
2021/12/04 08:23:46;;;;;;;2.00;0.60;;;6.00;94.30;;;;;;5017011;28;20830;-71
2021/12/04 08:26:14;;;;;;;2.00;0.60;;;6.00;94.70;;;;;;5016385;28;20483;-71
2021/12/04 08:28:41;;;;;;;2.10;0.60;;;6.00;94.50;;;;;;5016295;28;20448;-71
2021/12/04 08:31:08;;;;;;;2.00;0.60;;;6.20;94.50;;;;;;5016223;28;20436;-71
2021/12/04 08:33:35;;;;;;;2.80;0.80;;;6.20;93.90;;;;;;5016096;28;20448;-70
2021/12/04 08:36:04;;;;;;;2.20;0.60;;;6.30;94.10;;;;;;5015975;28;20526;-70
2021/12/04 08:38:32;;;;;;;2.00;0.60;;;6.40;93.70;;;;;;5015973;28;20448;-70
2021/12/04 08:40:59;;;;;;;2.00;0.70;;;6.30;93.60;;;;;;5015889;28;20472;-70
2021/12/04 08:43:27;;;;;;;2.20;0.77;;;6.30;93.90;;;;;;5015743;28;20943;-70
2021/12/04 08:45:54;;;;;;;2.10;0.70;;;6.30;94.00;;;;;;5015626;28;21027;-70
2021/12/04 08:48:20;;;;;;;2.10;0.70;;;6.40;93.90;;;;;;5016009;28;20451;-70
2021/12/04 08:50:47;;;;;;;2.00;0.60;;;6.30;94.20;;;;;;5015970;28;20498;-70
2021/12/04 08:53:14;;;;;;;2.10;0.60;;;6.30;94.50;;;;;;5015979;28;20452;-70
2021/12/04 08:55:42;;;;;;;2.30;0.80;;;6.30;94.60;;;;;;5015784;28;20468;-70
2021/12/04 08:58:10;;;;;;;2.00;0.60;;;6.30;94.90;;;;;;5015882;28;20804;-70
2021/12/04 09:00:46;;;;;;;2.07;0.70;;;6.30;94.70;;;;;;5015736;28;20480;-71
2021/12/04 09:03:13;;;;;;;2.10;0.70;;;6.30;94.90;;;;;;5015768;28;20436;-70
2021/12/04 09:05:40;;;;;;;2.10;0.70;;;6.40;95.20;;;;;;5015639;28;20472;-70
2021/12/04 09:08:08;;;;;;;2.17;0.77;;;6.40;94.50;;;;;;5015557;28;20460;-70
2021/12/04 09:10:36;;;;;;;2.10;0.67;;;6.40;94.40;;;;;;5015155;28;20448;-71
2021/12/04 09:13:04;;;;;;;2.10;0.70;;;6.60;94.80;;;;;;5015510;28;20451;-70
2021/12/04 09:15:32;;;;;;;2.07;0.70;;;6.50;94.20;;;;;;5015058;28;20919;-70
2021/12/04 09:18:00;;;;;;;2.10;0.80;;;6.60;94.70;;;;;;5015406;28;20487;-70
2021/12/04 09:20:29;;;;;;;2.00;0.70;;;6.50;94.80;;;;;;5015294;28;20476;-70
2021/12/04 09:22:56;;;;;;;2.20;0.70;;;6.60;95.10;;;;;;5015378;28;20508;-70
2021/12/04 09:25:25;;;;;;;2.20;0.80;;;6.50;95.40;;;;;;5015308;28;20474;-70
2021/12/04 09:28:06;;;;;;;2.17;0.70;;;6.50;95.80;;;;;;5015174;28;20452;-70
2021/12/04 09:33:43;;;;;;;2.60;1.10;;;6.50;95.80;;;;;;4982397;28;20424;-70
2021/12/04 09:36:43;;;;;;;2.10;0.70;;;6.60;95.80;;;;;;5015167;28;20530;-70
2021/12/04 10:01:20;;;;;;;2.00;0.60;;;7.20;95.80;;;;;;5014806;28;21013;-71
2021/12/04 10:04:05;;;;;;;2.10;0.80;;;7.30;95.80;;;;;;5014712;28;20788;-72
2021/12/04 10:21:13;;;;;;;2.00;0.67;;;8.00;94.50;;;;;;4991149;28;20508;-76
2021/12/04 10:24:13;;;;;;;2.10;0.70;;;8.20;94.70;;;;;;4994994;28;20489;-76
2021/12/04 10:32:36;;;;;;;2.10;0.60;;;8.50;93.20;;;;;;4995283;28;20409;-75
2021/12/04 10:35:08;;;;;;;2.40;0.73;;;8.50;93.10;;;;;;4995172;28;20469;-74
2021/12/04 10:37:37;;;;;;;2.00;0.70;;;8.60;93.30;;;;;;4994802;28;20495;-74
2021/12/04 10:40:08;;;;;;;2.33;0.80;;;8.40;93.20;;;;;;4994977;28;20460;-76
2021/12/04 10:42:43;;;;;;;2.00;0.70;;;8.40;94.00;;;;;;4994638;28;20470;-75
2021/12/04 10:45:10;;;;;;;2.00;0.70;;;8.30;93.90;;;;;;4994923;28;20477;-76
2021/12/04 10:47:37;;;;;;;2.00;0.60;;;8.30;94.60;;;;;;4995156;28;20449;-77
2021/12/04 10:50:17;;;;;;;2.30;0.83;;;8.40;95.00;;;;;;4994897;28;20449;-76
2021/12/04 10:52:51;;;;;;;2.07;0.70;;;8.60;94.40;;;;;;4994424;28;20813;-77
2021/12/04 10:55:23;;;;;;;2.00;0.60;;;8.70;94.30;;;;;;4994794;28;20473;-77
2021/12/04 11:00:42;;;;;;;2.00;0.70;;;8.80;93.30;;;;;;4994531;28;20410;-77
2021/12/04 11:03:22;;;;;;;2.00;0.70;;;8.90;93.30;;;;;;4995496;28;20437;-77
2021/12/04 11:06:19;;;;;;;2.30;0.90;;;9.00;93.40;;;;;;4994290;28;20972;-77
2021/12/04 11:23:18;;;;;;;2.10;0.70;;;9.40;92.50;;;;;;4953202;29;20447;-76
2021/12/04 11:28:46;;;;;;;2.03;0.67;;;9.30;92.10;;;;;;4994154;28;20517;-76
2021/12/04 11:36:58;;;;;;;2.00;0.60;;;9.20;92.50;;;;;;4997409;28;20974;-71
2021/12/04 11:42:18;;;;;;;2.00;0.70;;;9.40;93.00;;;;;;4987315;28;20571;-71
2021/12/04 11:44:52;;;;;;;2.00;0.70;;;9.30;92.90;;;;;;4997884;28;20516;-76
2021/12/04 11:47:19;;;;;;;2.00;0.60;;;9.40;92.00;;;;;;4998092;28;20443;-76
2021/12/04 11:49:46;;;;;;;2.00;0.60;;;9.40;91.90;;;;;;4997938;28;20495;-76
2021/12/04 11:52:17;;;;;;;2.40;0.70;;;9.30;91.30;;;;;;4998043;28;20496;-76
2021/12/04 11:54:47;;;;;;;2.03;0.60;;;9.40;91.80;;;;;;4997771;28;20477;-76
2021/12/04 11:57:16;;;;;;;2.00;0.60;;;9.40;91.60;;;;;;4997752;28;20524;-75
2021/12/04 11:59:47;;;;;;;2.00;0.57;;;9.40;91.50;;;;;;4997667;28;20866;-76
2021/12/04 12:02:20;;;;;;;2.00;0.60;;;9.50;91.30;;;;;;4997340;28;21048;-76
2021/12/04 12:04:50;;;;;;;2.00;0.60;;;9.50;91.20;;;;;;4997524;28;20468;-76
2021/12/04 12:07:19;;;;;;;2.00;0.60;;;9.50;91.10;;;;;;4997675;28;20496;-76
2021/12/04 12:09:47;;;;;;;2.10;0.70;;;9.50;90.90;;;;;;4998169;28;20453;-75
2021/12/04 12:12:17;;;;;;;2.00;0.60;;;9.50;91.30;;;;;;4997593;28;20444;-75
2021/12/04 12:14:49;;;;;;;2.10;0.70;;;9.60;91.40;;;;;;4997527;28;20473;-75
2021/12/04 12:17:18;;;;;;;2.17;0.70;;;9.70;91.10;;;;;;4998073;28;20801;-75
2021/12/04 12:19:51;;;;;;;2.40;0.70;;;9.50;90.90;;;;;;4997409;28;20453;-76
2021/12/04 12:22:40;;;;;;;2.00;0.67;;;9.50;91.40;;;;;;4997110;28;20473;-74
2021/12/04 12:25:19;;;;;;;2.00;0.60;;;9.50;91.90;;;;;;4997235;28;20837;-76
2021/12/04 12:33:31;;;;;;;2.00;0.70;;;9.30;93.30;;;;;;4997185;28;20421;-75
2021/12/04 12:36:04;;;;;;;2.00;0.60;;;9.20;93.80;;;;;;4996841;28;20988;-75
2021/12/04 12:38:45;;;;;;;2.33;0.70;;;9.10;94.20;;;;;;4996997;28;20426;-75
2021/12/04 12:41:17;;;;;;;2.10;0.60;;;9.30;94.30;;;;;;4996585;28;21075;-76
2021/12/04 12:43:50;;;;;;;2.00;0.60;;;9.30;94.00;;;;;;4996678;28;20782;-76
2021/12/04 12:46:18;;;;;;;2.00;0.63;;;9.40;94.00;;;;;;4996132;28;20524;-76
2021/12/04 12:48:51;;;;;;;2.03;0.67;;;9.40;93.80;;;;;;4996817;28;20461;-76
2021/12/04 12:51:27;;;;;;;2.37;0.70;;;9.40;93.70;;;;;;4996817;28;20495;-76
2021/12/04 12:53:56;;;;;;;2.00;0.70;;;9.40;93.80;;;;;;4996408;28;20453;-76
2021/12/04 12:56:27;;;;;;;2.00;0.70;;;9.40;94.20;;;;;;4996531;28;20469;-76
2021/12/04 12:58:57;;;;;;;2.10;0.87;;;9.40;94.00;;;;;;4996585;28;20442;-77
2021/12/04 13:12:46;;;;;;;2.00;0.60;;;9.00;94.40;;;;;;4996634;28;20472;-77
2021/12/04 13:15:13;;;;;;;2.00;0.70;;;8.90;94.70;;;;;;4996157;28;20988;-78
2021/12/04 13:17:42;;;;;;;2.10;0.70;;;8.90;94.50;;;;;;4995980;28;20957;-77
2021/12/04 13:20:11;;;;;;;2.53;0.80;;;8.90;95.00;;;;;;4995956;28;20944;-77
2021/12/04 13:22:38;;;;;;;2.27;0.70;;;9.00;94.80;;;;;;4995985;28;20831;-77
2021/12/04 13:25:07;;;;;;;2.10;0.80;;;9.10;94.30;;;;;;4996157;28;20473;-77
2021/12/04 13:30:06;;;;;;;2.37;0.70;;;9.10;93.80;;;;;;4996371;28;20469;-77
2021/12/04 13:32:36;;;;;;;2.00;0.70;;;9.10;94.10;;;;;;4996258;28;20198;-77
2021/12/04 13:35:07;;;;;;;2.00;0.67;;;9.20;94.00;;;;;;4996061;28;20477;-76
2021/12/04 13:37:35;;;;;;;2.17;0.83;;;9.20;93.70;;;;;;4996103;28;20844;-77
2021/12/04 13:40:05;;;;;;;2.03;0.70;;;9.20;93.60;;;;;;4995921;28;20871;-77
2021/12/04 13:42:32;;;;;;;2.77;0.80;;;9.30;93.60;;;;;;4996226;28;20505;-77
2021/12/04 13:44:59;;;;;;;2.17;0.70;;;9.30;93.30;;;;;;4996214;28;20472;-76
2021/12/04 13:47:27;;;;;;;2.17;0.73;;;9.30;93.50;;;;;;4996068;28;20448;-76
2021/12/04 13:49:54;;;;;;;2.00;0.63;;;9.30;93.50;;;;;;4995683;28;20449;-75
2021/12/04 13:52:24;;;;;;;2.10;0.70;;;9.20;93.80;;;;;;4995579;28;20477;-76
2021/12/04 13:54:54;;;;;;;2.07;0.73;;;9.20;94.00;;;;;;4995590;28;20480;-76
2021/12/04 13:57:21;;;;;;;2.30;0.80;;;9.10;94.30;;;;;;4994818;28;20453;-76
2021/12/04 13:59:48;;;;;;;2.97;0.90;;;9.10;94.60;;;;;;4994879;28;20945;-76
2021/12/04 14:02:23;;;;;;;2.00;0.70;;;9.10;94.50;;;;;;4995605;28;20477;-77
2021/12/04 14:04:58;;;;;;;2.30;0.80;;;9.00;95.00;;;;;;4994961;28;20817;-76
2021/12/04 14:07:27;;;;;;;2.40;0.80;;;8.90;95.40;;;;;;4995528;28;20452;-77
2021/12/04 14:09:54;;;;;;;2.30;0.80;;;8.80;95.80;;;;;;4995109;28;20834;-76
2021/12/04 14:12:21;;;;;;;2.10;0.90;;;8.80;95.80;;;;;;4995515;28;20453;-77
2021/12/04 14:14:48;;;;;;;2.17;0.77;;;8.90;95.80;;;;;;4994749;28;20983;-78
2021/12/04 14:17:17;;;;;;;2.50;0.90;;;9.00;95.80;;;;;;4995340;28;20437;-78
2021/12/04 14:19:45;;;;;;;2.10;0.70;;;9.00;95.30;;;;;;4995224;28;20504;-78
2021/12/04 14:22:14;;;;;;;2.30;0.90;;;8.90;95.50;;;;;;4995035;28;20535;-77
2021/12/04 14:24:44;;;;;;;2.63;0.90;;;8.90;95.50;;;;;;4994980;28;20477;-77
2021/12/04 14:27:15;;;;;;;2.17;0.90;;;8.90;95.80;;;;;;4995166;28;20444;-77
2021/12/04 14:29:46;;;;;;;2.40;0.90;;;8.90;95.70;;;;;;4994592;28;20999;-76
2021/12/04 14:32:14;;;;;;;2.13;0.90;;;8.90;95.80;;;;;;4994960;28;20437;-77
2021/12/04 14:34:41;;;;;;;2.53;1.07;;;8.90;95.80;;;;;;4994696;28;20469;-76
2021/12/04 14:37:12;;;;;;;2.30;0.80;;;8.90;95.80;;;;;;4994786;28;20503;-78
2021/12/04 14:39:39;;;;;;;3.07;0.90;;;8.80;95.70;;;;;;4994797;28;20452;-77
2021/12/04 14:42:13;;;;;;;2.17;0.80;;;8.80;95.80;;;;;;5014325;28;20484;-77
2021/12/04 14:44:40;;;;;;;2.10;0.73;;;8.80;95.80;;;;;;5019581;28;20556;-77
2021/12/04 14:47:07;;;;;;;2.30;0.80;;;8.80;95.80;;;;;;5019953;28;20418;-75
2021/12/04 14:49:36;;;;;;;2.17;0.70;;;8.80;95.80;;;;;;5009566;28;20488;-77
2021/12/04 14:52:04;;;;;;;2.10;0.87;;;8.80;95.80;;;;;;4996517;28;20449;-77
2021/12/04 14:54:32;;;;;;;2.03;0.70;;;8.70;95.80;;;;;;4996357;28;20504;-77
2021/12/04 14:56:59;;;;;;;2.07;0.70;;;8.70;95.80;;;;;;4995782;28;20480;-77
2021/12/04 14:59:32;;;;;;;2.03;0.70;;;8.70;95.80;;;;;;4995725;28;20449;-76
2021/12/04 15:01:59;;;;;;;2.10;0.70;;;8.70;95.80;;;;;;4995698;28;20516;-77
2021/12/04 15:04:26;;;;;;;2.17;0.90;;;8.70;95.80;;;;;;4995464;28;20452;-77
2021/12/04 15:06:53;;;;;;;2.00;0.70;;;8.80;95.80;;;;;;4994926;28;20512;-76
2021/12/04 15:09:20;;;;;;;2.03;0.67;;;8.90;95.80;;;;;;4994332;28;20818;-78
2021/12/04 15:11:49;;;;;;;2.30;0.80;;;9.10;95.50;;;;;;4994645;28;20449;-78
2021/12/04 15:14:20;;;;;;;2.83;0.73;;;9.20;94.50;;;;;;4994808;28;20599;-77
2021/12/04 15:16:52;;;;;;;2.30;0.97;;;9.30;94.40;;;;;;4994470;28;20469;-76
2021/12/04 15:19:27;;;;;;;3.53;0.90;;;9.20;93.70;;;;;;4994616;28;20429;-76
2021/12/04 15:21:58;;;;;;;2.23;0.90;;;9.10;94.10;;;;;;4994520;28;20555;-77
2021/12/04 15:24:28;;;;;;;2.20;0.80;;;9.10;94.10;;;;;;4994490;28;20532;-76
2021/12/04 15:26:58;;;;;;;2.20;0.80;;;9.00;93.70;;;;;;4994330;28;20445;-77
2021/12/04 15:29:28;;;;;;;2.50;0.80;;;9.10;93.90;;;;;;4994212;28;20556;-76
2021/12/04 15:32:00;;;;;;;2.20;0.90;;;9.10;93.70;;;;;;4995163;28;20595;-74
2021/12/04 15:34:33;;;;;;;2.07;0.70;;;9.00;93.70;;;;;;4994044;28;20445;-76
2021/12/04 15:37:03;;;;;;;2.10;0.80;;;9.00;94.10;;;;;;4994202;28;20436;-77
2021/12/04 15:39:35;;;;;;;2.10;0.70;;;9.00;94.00;;;;;;4993828;28;20822;-76
2021/12/04 15:45:12;;;;;;;2.23;0.80;;;9.10;93.80;;;;;;4988298;28;20464;-77
2021/12/04 15:47:47;;;;;;;2.30;0.90;;;9.10;93.90;;;;;;4994091;28;20436;-76
2021/12/04 15:50:50;;;;;;;2.20;0.70;;;9.20;93.50;;;;;;4993731;28;20905;-77
2021/12/04 15:53:16;;;;;;;2.10;0.80;;;9.20;92.40;;;;;;4994154;28;20516;-77
2021/12/04 15:55:53;;;;;;;2.20;0.80;;;9.10;92.50;;;;;;4993657;28;20449;-77
2021/12/04 15:58:22;;;;;;;2.40;0.90;;;9.20;92.60;;;;;;4993957;28;20557;-77
2021/12/04 16:00:53;;;;;;;2.30;0.90;;;9.30;92.40;;;;;;4993796;28;20799;-76
2021/12/04 16:03:22;;;;;;;2.23;0.90;;;9.40;92.10;;;;;;4993956;28;20512;-77
2021/12/04 16:05:52;;;;;;;2.50;0.93;;;9.50;91.50;;;;;;4993919;28;20477;-77
2021/12/04 16:08:21;;;;;;;2.23;0.77;;;9.40;91.30;;;;;;4993926;28;20437;-77
2021/12/04 16:10:49;;;;;;;2.23;0.80;;;9.50;91.20;;;;;;4993883;28;20445;-77
2021/12/04 16:13:22;;;;;;;3.17;0.80;;;9.50;90.80;;;;;;4993715;28;20456;-77
2021/12/04 16:15:50;;;;;;;2.10;0.80;;;9.60;91.10;;;;;;4994992;28;20572;-76
2021/12/04 16:18:17;;;;;;;2.70;0.90;;;9.70;90.20;;;;;;4993878;28;20457;-76
2021/12/04 16:20:46;;;;;;;2.07;0.70;;;9.70;89.80;;;;;;4994120;28;20464;-76
2021/12/04 16:23:15;;;;;;;2.60;0.80;;;9.50;90.40;;;;;;4997805;28;20484;-77
2021/12/04 16:25:42;;;;;;;2.20;0.80;;;9.60;90.80;;;;;;4997317;28;20564;-76
2021/12/04 16:28:21;;;;;;;2.40;0.80;;;9.60;90.40;;;;;;4997481;28;20449;-76
2021/12/04 16:31:08;;;;;;;2.50;0.87;;;9.60;90.10;;;;;;4996876;28;20429;-77
2021/12/04 16:33:41;;;;;;;2.07;0.70;;;9.70;89.90;;;;;;4997040;28;20445;-77
2021/12/04 16:36:20;;;;;;;2.70;0.80;;;9.70;88.90;;;;;;4996910;28;20501;-76
2021/12/04 16:38:48;;;;;;;2.50;0.87;;;9.60;89.50;;;;;;4996859;28;20866;-76
2021/12/04 16:41:16;;;;;;;2.00;0.70;;;9.50;89.30;;;;;;4996879;28;20449;-77
2021/12/04 16:43:45;;;;;;;2.03;0.70;;;9.50;89.00;;;;;;4996571;28;20480;-75
2021/12/04 16:46:16;;;;;;;3.00;0.90;;;9.40;89.10;;;;;;4996435;28;20477;-77
2021/12/04 16:48:47;;;;;;;2.03;0.77;;;9.40;89.60;;;;;;4996797;28;20441;-76
2021/12/04 16:59:33;;;;;;;2.20;0.90;;;9.30;90.40;;;;;;4983716;28;20426;-76
2021/12/04 17:02:01;;;;;;;2.10;0.70;;;9.20;90.20;;;;;;4996571;28;20824;-77
2021/12/04 17:04:29;;;;;;;2.10;0.70;;;9.10;90.70;;;;;;4996470;28;20781;-77
2021/12/04 17:06:59;;;;;;;2.20;0.77;;;9.10;90.40;;;;;;4996494;28;20479;-77
2021/12/04 17:09:27;;;;;;;2.30;1.10;;;9.00;91.10;;;;;;4996477;28;20484;-76
2021/12/04 17:11:55;;;;;;;2.30;0.80;;;9.00;91.30;;;;;;4996527;28;20500;-77
2021/12/04 17:14:22;;;;;;;2.50;0.90;;;9.00;91.40;;;;;;4996194;28;20460;-77
2021/12/04 17:16:50;;;;;;;2.67;0.80;;;8.90;91.90;;;;;;4995951;28;20465;-77
2021/12/04 17:19:16;;;;;;;2.07;0.83;;;8.80;91.80;;;;;;4996162;28;20457;-77
2021/12/04 17:21:45;;;;;;;2.60;1.43;;;8.90;91.60;;;;;;4995845;28;20937;-77
2021/12/04 17:24:16;;;;;;;2.20;0.90;;;8.90;90.80;;;;;;4996057;28;20485;-77
2021/12/04 17:26:45;;;;;;;2.10;0.80;;;8.90;91.00;;;;;;4995862;28;20430;-77
2021/12/04 17:29:13;;;;;;;2.17;0.73;;;9.00;90.60;;;;;;4995748;28;20821;-76
2021/12/04 17:31:41;;;;;;;2.40;0.90;;;9.10;90.10;;;;;;4995380;28;20457;-76
2021/12/04 17:34:07;;;;;;;2.73;1.30;;;9.00;90.00;;;;;;4995937;28;20492;-76
2021/12/04 17:36:36;;;;;;;2.20;0.80;;;9.30;89.90;;;;;;4995850;28;20519;-77
2021/12/04 17:39:05;;;;;;;2.30;0.90;;;9.40;89.20;;;;;;4995938;28;20448;-77
2021/12/04 17:41:33;;;;;;;2.73;0.80;;;9.50;88.40;;;;;;4995929;28;20461;-76
2021/12/04 17:44:01;;;;;;;2.30;0.93;;;9.50;88.40;;;;;;4995392;28;21038;-76
2021/12/04 17:46:29;;;;;;;2.30;0.90;;;9.60;87.50;;;;;;4995620;28;20549;-76
2021/12/04 17:48:57;;;;;;;2.03;0.70;;;9.30;87.30;;;;;;4995398;28;20803;-76
2021/12/04 17:51:24;;;;;;;2.27;0.80;;;9.30;88.30;;;;;;4995826;28;20456;-76
2021/12/04 17:53:53;;;;;;;2.00;0.70;;;9.50;88.20;;;;;;4996609;28;20809;-76
2021/12/04 17:56:21;;;;;;;2.30;0.80;;;9.40;87.50;;;;;;4995542;28;20468;-76
2021/12/04 17:58:49;;;;;;;2.57;0.80;;;9.20;87.50;;;;;;4995603;28;20454;-76
2021/12/04 18:01:20;;;;;;;2.40;0.90;;;9.10;87.10;;;;;;4995258;28;20463;-76
2021/12/04 18:03:48;;;;;;;2.40;1.00;;;9.10;87.20;;;;;;4996089;28;20474;-76
2021/12/04 18:06:19;;;;;;;2.10;0.70;;;9.00;86.50;;;;;;4995333;28;20469;-76
2021/12/04 18:08:47;;;;;;;2.83;0.90;;;8.90;86.00;;;;;;4995113;28;20422;-76
2021/12/04 18:11:23;;;;;;;2.50;0.70;;;8.80;85.10;;;;;;4995483;28;20456;-76
2021/12/04 18:13:54;;;;;;;2.00;0.60;;;8.80;84.10;;;;;;4994923;28;20433;-76
2021/12/04 18:16:24;;;;;;;2.20;0.80;;;8.70;84.40;;;;;;4994845;28;20488;-76
2021/12/04 18:18:50;;;;;;;3.23;0.90;;;8.70;84.50;;;;;;4995271;28;20445;-75
2021/12/04 18:21:17;;;;;;;2.03;0.60;;;8.60;84.40;;;;;;4995117;28;20449;-76
2021/12/04 18:23:44;;;;;;;2.17;0.77;;;8.60;84.10;;;;;;4995118;28;20484;-75
2021/12/04 18:26:12;;;;;;;2.23;0.90;;;8.50;83.40;;;;;;4994665;28;20469;-76
2021/12/04 18:28:38;;;;;;;2.07;0.70;;;8.50;83.30;;;;;;4994908;28;20449;-75
2021/12/04 18:31:07;;;;;;;2.00;0.70;;;8.50;83.50;;;;;;4994892;28;20496;-76
2021/12/04 18:33:36;;;;;;;2.00;0.70;;;8.50;83.40;;;;;;4994850;28;20442;-76
2021/12/04 18:36:04;;;;;;;2.10;0.70;;;8.50;83.40;;;;;;4994732;28;20473;-75
2021/12/04 18:38:31;;;;;;;2.23;0.80;;;8.60;83.00;;;;;;4994733;28;20480;-75
2021/12/04 18:41:00;;;;;;;2.20;0.80;;;8.80;82.90;;;;;;4994786;28;20453;-75
2021/12/04 18:43:32;;;;;;;2.13;0.80;;;8.80;82.30;;;;;;4993992;28;20998;-75
2021/12/04 18:45:59;;;;;;;2.10;0.80;;;9.00;81.80;;;;;;4994585;28;20504;-75
2021/12/04 18:48:27;;;;;;;2.40;0.90;;;9.00;81.30;;;;;;4994262;28;20944;-75
2021/12/04 18:50:56;;;;;;;2.20;0.70;;;8.90;81.60;;;;;;4994641;28;20449;-76
2021/12/04 18:53:23;;;;;;;2.13;0.80;;;9.00;81.20;;;;;;4994357;28;20944;-75
2021/12/04 18:55:50;;;;;;;2.03;0.70;;;9.00;80.40;;;;;;4994457;28;20473;-75
2021/12/04 18:58:19;;;;;;;2.27;0.77;;;9.10;80.40;;;;;;4994124;28;20812;-75
2021/12/04 19:00:47;;;;;;;2.30;0.87;;;9.10;80.30;;;;;;4994408;28;20461;-75
2021/12/04 19:03:14;;;;;;;2.20;0.90;;;9.00;79.00;;;;;;4994397;28;20547;-75
2021/12/04 19:05:46;;;;;;;2.37;1.00;;;8.80;80.10;;;;;;4994257;28;20469;-75
2021/12/04 19:08:18;;;;;;;2.50;1.10;;;8.90;80.30;;;;;;4994877;28;20433;-76
2021/12/04 19:10:45;;;;;;;2.27;1.07;;;8.90;80.20;;;;;;4994315;28;20445;-76
2021/12/04 19:13:13;;;;;;;2.30;0.90;;;8.80;80.00;;;;;;4994253;28;20524;-76
2021/12/04 19:15:41;;;;;;;2.10;0.70;;;8.70;80.00;;;;;;4994097;28;20511;-76
2021/12/04 19:18:09;;;;;;;2.20;0.80;;;8.70;80.20;;;;;;4994926;28;20549;-76
2021/12/04 19:20:39;;;;;;;2.30;0.80;;;8.60;80.40;;;;;;4993960;28;20971;-75